Time;durP1;ratioP1;P1;durP2;ratioP2;P2;SDS_P1;SDS_P2;PMS_P1;PMS_P2;Temp;Humidity;BMP_temperature;BMP_pressure;BME280_temperature;BME280_humidity;BME280_pressure;Samples;Min_cycle;Max_cycle;Signal;HPM_P1;HPM_P2
2023/10/25 00:01:31;;;;;;;19.83;5.00;;;;;;;;;;10419130;28;20093;-71
2023/10/25 00:06:31;;;;;;;24.35;6.28;;;;;;;;;;10420286;28;20326;-71
2023/10/25 00:11:31;;;;;;;22.00;6.10;;;;;;;;;;10419254;28;20017;-71
2023/10/25 00:16:32;;;;;;;19.37;6.93;;;;;;;;;;10419801;28;20018;-71
2023/10/25 00:21:32;;;;;;;23.05;6.22;;;;;;;;;;10417856;28;20013;-71
2023/10/25 00:26:32;;;;;;;17.17;5.72;;;;;;;;;;10419274;28;20020;-71
2023/10/25 00:31:32;;;;;;;26.80;7.30;;;;;;;;;;10418855;28;20307;-71
2023/10/25 00:36:33;;;;;;;14.73;5.35;;;;;;;;;;10433791;28;20005;-71
2023/10/25 00:41:33;;;;;;;14.98;5.40;;;;;;;;;;10417766;28;20014;-71
2023/10/25 00:46:33;;;;;;;12.25;4.88;;;;;;;;;;10434144;28;20303;-71
2023/10/25 00:51:34;;;;;;;20.35;5.20;;;;;;;;;;10418050;28;20067;-71
2023/10/25 00:56:36;;;;;;;18.02;6.00;;;;;;;;;;10417899;28;20146;-71
2023/10/25 01:01:36;;;;;;;20.08;5.65;;;;;;;;;;10404747;28;20093;-70
2023/10/25 01:06:37;;;;;;;25.92;7.40;;;;;;;;;;10411718;28;20013;-70
2023/10/25 01:11:37;;;;;;;11.82;5.30;;;;;;;;;;10417620;28;20017;-71
2023/10/25 01:16:37;;;;;;;17.53;4.83;;;;;;;;;;10417493;28;20028;-70
2023/10/25 01:21:38;;;;;;;17.90;4.35;;;;;;;;;;10384465;28;20088;-71
2023/10/25 01:26:38;;;;;;;13.02;4.90;;;;;;;;;;10411772;28;20215;-70
2023/10/25 01:31:39;;;;;;;16.92;4.82;;;;;;;;;;10417230;28;20021;-70
2023/10/25 01:36:39;;;;;;;19.08;5.25;;;;;;;;;;10416847;28;20044;-71
2023/10/25 01:41:39;;;;;;;17.27;4.07;;;;;;;;;;10432624;28;20014;-71
2023/10/25 01:46:39;;;;;;;25.05;5.82;;;;;;;;;;10417112;28;20020;-70
2023/10/25 01:51:40;;;;;;;16.92;5.88;;;;;;;;;;10416553;28;20017;-71
2023/10/25 01:56:40;;;;;;;15.73;5.28;;;;;;;;;;10386387;28;20382;-69
2023/10/25 02:01:40;;;;;;;13.50;4.57;;;;;;;;;;10418164;28;20307;-70
2023/10/25 02:06:41;;;;;;;14.10;4.40;;;;;;;;;;10424588;28;20264;-70
2023/10/25 02:11:41;;;;;;;19.45;4.38;;;;;;;;;;10423709;28;20254;-70
2023/10/25 02:16:42;;;;;;;20.70;4.87;;;;;;;;;;10404781;28;20045;-70
2023/10/25 02:21:42;;;;;;;21.17;5.10;;;;;;;;;;10400436;28;20017;-71
2023/10/25 02:26:43;;;;;;;23.45;4.78;;;;;;;;;;10423952;28;20279;-71
2023/10/25 02:31:43;;;;;;;26.08;5.00;;;;;;;;;;10423470;28;20021;-70
2023/10/25 02:36:44;;;;;;;26.20;9.15;;;;;;;;;;10423654;28;20021;-71
2023/10/25 02:41:44;;;;;;;15.93;5.07;;;;;;;;;;10423240;28;20017;-71
2023/10/25 02:46:44;;;;;;;14.90;5.10;;;;;;;;;;10423019;28;20063;-70
2023/10/25 02:51:44;;;;;;;17.17;4.65;;;;;;;;;;10423156;28;20025;-72
2023/10/25 02:56:45;;;;;;;18.92;5.60;;;;;;;;;;10422884;28;20045;-69
2023/10/25 03:01:45;;;;;;;23.08;6.00;;;;;;;;;;10422630;28;20323;-70
2023/10/25 03:06:45;;;;;;;13.68;4.50;;;;;;;;;;10421817;28;20021;-69
2023/10/25 03:11:45;;;;;;;8.20;4.20;;;;;;;;;;10422131;28;20041;-70
2023/10/25 03:16:46;;;;;;;19.95;5.25;;;;;;;;;;10423151;28;20085;-69
2023/10/25 03:21:46;;;;;;;14.98;3.92;;;;;;;;;;10394413;28;20040;-69
2023/10/25 03:26:46;;;;;;;17.20;3.78;;;;;;;;;;10421932;28;20017;-70
2023/10/25 03:31:47;;;;;;;24.30;4.80;;;;;;;;;;10421580;28;20231;-70
2023/10/25 03:36:47;;;;;;;17.77;5.07;;;;;;;;;;10420823;28;20021;-70
2023/10/25 03:41:47;;;;;;;18.43;5.10;;;;;;;;;;10420643;28;20299;-70
2023/10/25 03:46:48;;;;;;;27.20;5.30;;;;;;;;;;10435598;28;20029;-70
2023/10/25 03:51:48;;;;;;;22.63;8.07;;;;;;;;;;10420143;28;20088;-70
2023/10/25 03:56:48;;;;;;;15.53;5.07;;;;;;;;;;10436032;28;20331;-70
2023/10/25 04:01:49;;;;;;;17.13;6.07;;;;;;;;;;10435123;28;20026;-70
2023/10/25 04:06:49;;;;;;;14.15;5.63;;;;;;;;;;10420186;28;20057;-70
2023/10/25 04:11:49;;;;;;;23.40;6.10;;;;;;;;;;10403959;28;20025;-71
2023/10/25 04:16:49;;;;;;;17.17;5.40;;;;;;;;;;10376330;28;20017;-69
2023/10/25 04:21:50;;;;;;;12.93;5.93;;;;;;;;;;10407587;28;20029;-70
2023/10/25 04:26:50;;;;;;;21.05;6.72;;;;;;;;;;10418642;28;20021;-71
2023/10/25 04:31:50;;;;;;;18.85;5.57;;;;;;;;;;10434103;28;20090;-69
2023/10/25 04:36:51;;;;;;;18.57;5.30;;;;;;;;;;10418844;28;20354;-70
2023/10/25 04:41:51;;;;;;;23.55;5.22;;;;;;;;;;10414520;28;20053;-72
2023/10/25 04:46:52;;;;;;;18.57;6.80;;;;;;;;;;10377410;28;20026;-71
2023/10/25 04:51:52;;;;;;;26.75;7.82;;;;;;;;;;10417379;28;20025;-72
2023/10/25 04:56:52;;;;;;;19.07;6.80;;;;;;;;;;10417683;28;20049;-71
2023/10/25 05:01:53;;;;;;;27.20;5.93;;;;;;;;;;10417204;28;20082;-73
2023/10/25 05:06:53;;;;;;;26.92;6.22;;;;;;;;;;10417633;28;20018;-72
2023/10/25 05:11:55;;;;;;;19.13;6.80;;;;;;;;;;10417281;28;20021;-71
2023/10/25 05:16:56;;;;;;;28.88;7.63;;;;;;;;;;10432199;28;20080;-71
2023/10/25 05:21:56;;;;;;;27.42;8.05;;;;;;;;;;10419153;28;20017;-72
2023/10/25 05:26:57;;;;;;;27.25;9.10;;;;;;;;;;10415833;28;20021;-72
2023/10/25 05:31:58;;;;;;;23.80;7.45;;;;;;;;;;10431664;28;20272;-73
2023/10/25 05:36:59;;;;;;;39.58;8.10;;;;;;;;;;10416255;28;20076;-71
2023/10/25 05:42:04;;;;;;;20.57;6.43;;;;;;;;;;10416635;28;20017;-72
2023/10/25 05:47:04;;;;;;;27.08;7.70;;;;;;;;;;10416038;28;20263;-73
2023/10/25 05:52:05;;;;;;;29.85;7.07;;;;;;;;;;10416359;28;20013;-73
2023/10/25 05:57:06;;;;;;;34.67;7.57;;;;;;;;;;10416503;28;20128;-72
2023/10/25 06:02:09;;;;;;;24.98;5.60;;;;;;;;;;10415866;28;20353;-72
2023/10/25 06:07:10;;;;;;;27.98;10.10;;;;;;;;;;10416321;28;20028;-72
2023/10/25 06:12:11;;;;;;;23.77;7.88;;;;;;;;;;10390997;28;20420;-72
2023/10/25 06:17:11;;;;;;;30.42;7.85;;;;;;;;;;10401231;28;20017;-72
2023/10/25 06:22:11;;;;;;;28.40;8.10;;;;;;;;;;10416096;28;20024;-72
2023/10/25 06:27:12;;;;;;;23.92;6.90;;;;;;;;;;10415559;28;20034;-71
2023/10/25 06:32:12;;;;;;;32.25;7.55;;;;;;;;;;10416116;28;20024;-70
2023/10/25 06:37:13;;;;;;;34.83;8.60;;;;;;;;;;10416018;28;20086;-72
2023/10/25 06:42:13;;;;;;;28.63;7.53;;;;;;;;;;10421113;28;20356;-71
2023/10/25 06:47:13;;;;;;;26.98;6.93;;;;;;;;;;10422556;28;20052;-71
2023/10/25 06:52:14;;;;;;;19.33;6.20;;;;;;;;;;10437879;28;20226;-72
2023/10/25 06:57:14;;;;;;;20.97;6.43;;;;;;;;;;10423498;28;20379;-71
2023/10/25 07:02:28;;;;;;;21.30;5.55;;;;;;;;;;10422095;28;20268;-73
2023/10/25 07:07:30;;;;;;;24.83;6.43;;;;;;;;;;10421728;28;20354;-71
2023/10/25 07:12:33;;;;;;;17.45;4.53;;;;;;;;;;10425026;28;20255;-71
2023/10/25 07:17:33;;;;;;;18.63;4.85;;;;;;;;;;10421358;28;20260;-71
2023/10/25 07:22:34;;;;;;;27.80;8.13;;;;;;;;;;10421580;28;20022;-71
2023/10/25 07:27:36;;;;;;;35.58;6.30;;;;;;;;;;10436586;28;20041;-71
2023/10/25 07:32:36;;;;;;;35.03;7.05;;;;;;;;;;10426943;28;20021;-71
2023/10/25 07:37:36;;;;;;;18.20;4.97;;;;;;;;;;10421248;28;20325;-72
2023/10/25 07:42:37;;;;;;;24.63;5.70;;;;;;;;;;10421308;28;20025;-72
2023/10/25 07:47:37;;;;;;;24.50;5.35;;;;;;;;;;10420603;28;20025;-71
2023/10/25 07:52:37;;;;;;;23.70;5.85;;;;;;;;;;10419214;28;20057;-72
2023/10/25 07:57:38;;;;;;;26.30;7.65;;;;;;;;;;10407371;28;20041;-72
2023/10/25 08:02:39;;;;;;;38.72;6.20;;;;;;;;;;10420271;28;20128;-71
2023/10/25 08:07:39;;;;;;;27.80;5.97;;;;;;;;;;10420133;28;20318;-71
2023/10/25 08:12:39;;;;;;;23.48;5.65;;;;;;;;;;10419517;28;20049;-72
2023/10/25 08:17:40;;;;;;;26.37;6.00;;;;;;;;;;10434876;28;20028;-69
2023/10/25 08:22:40;;;;;;;27.85;7.18;;;;;;;;;;10419366;28;20059;-71
2023/10/25 08:27:40;;;;;;;31.90;6.55;;;;;;;;;;10419361;28;20395;-73
2023/10/25 08:32:40;;;;;;;28.23;6.22;;;;;;;;;;10418726;28;20031;-71
2023/10/25 08:37:41;;;;;;;38.75;6.07;;;;;;;;;;10419136;28;20092;-72
2023/10/25 08:42:41;;;;;;;24.13;5.32;;;;;;;;;;10418215;28;20104;-71
2023/10/25 08:47:41;;;;;;;31.67;5.80;;;;;;;;;;10418721;28;20037;-72
2023/10/25 08:52:43;;;;;;;24.70;6.88;;;;;;;;;;10405600;28;20025;-72
2023/10/25 08:57:43;;;;;;;21.58;4.72;;;;;;;;;;10417043;28;20044;-72
2023/10/25 09:02:45;;;;;;;22.73;4.78;;;;;;;;;;10417511;28;20021;-71
2023/10/25 09:07:45;;;;;;;33.90;6.00;;;;;;;;;;10417786;28;20104;-72
2023/10/25 09:12:46;;;;;;;33.75;5.13;;;;;;;;;;10417067;28;20017;-71
2023/10/25 09:17:46;;;;;;;22.50;4.13;;;;;;;;;;10417816;28;20237;-72
2023/10/25 09:22:46;;;;;;;31.65;6.15;;;;;;;;;;10417199;28;20033;-72
2023/10/25 09:27:47;;;;;;;16.48;4.10;;;;;;;;;;10416718;28;20025;-72
2023/10/25 09:32:47;;;;;;;27.20;5.45;;;;;;;;;;10416616;28;20017;-72
2023/10/25 09:37:47;;;;;;;24.77;4.60;;;;;;;;;;10416925;28;20036;-72
2023/10/25 09:42:52;;;;;;;30.85;4.57;;;;;;;;;;10417772;28;20071;-72
2023/10/25 09:47:53;;;;;;;31.40;4.40;;;;;;;;;;10432110;28;20021;-72
2023/10/25 09:53:00;;;;;;;36.53;6.30;;;;;;;;;;10416502;28;20311;-72
2023/10/25 09:58:01;;;;;;;45.73;5.27;;;;;;;;;;10416595;28;20072;-72
2023/10/25 10:03:23;;;;;;;34.08;5.80;;;;;;;;;;10415327;28;20152;-73
2023/10/25 10:08:30;;;;;;;39.75;4.63;;;;;;;;;;10415612;28;20049;-71
2023/10/25 10:13:30;;;;;;;17.63;4.28;;;;;;;;;;10416255;28;20040;-72
2023/10/25 10:18:31;;;;;;;33.38;6.47;;;;;;;;;;10439253;28;20025;-72
2023/10/25 10:23:35;;;;;;;27.10;5.25;;;;;;;;;;10423066;28;20021;-72
2023/10/25 10:28:51;;;;;;;29.23;5.28;;;;;;;;;;10424739;28;20187;-73
2023/10/25 10:33:51;;;;;;;32.63;5.55;;;;;;;;;;10342377;28;20026;-72
2023/10/25 10:39:13;;;;;;;30.88;5.47;;;;;;;;;;10376834;28;20029;-71
2023/10/25 10:44:13;;;;;;;32.58;5.45;;;;;;;;;;10421433;28;20097;-72
2023/10/25 10:49:15;;;;;;;38.37;5.30;;;;;;;;;;10423069;28;20234;-72
2023/10/25 10:54:15;;;;;;;38.15;6.45;;;;;;;;;;10421140;28;20283;-73
2023/10/25 10:59:15;;;;;;;49.80;6.22;;;;;;;;;;10423106;28;20045;-71
2023/10/25 11:04:16;;;;;;;40.47;5.40;;;;;;;;;;10422277;28;20029;-71
2023/10/25 11:09:16;;;;;;;40.55;4.82;;;;;;;;;;10422315;28;20243;-72
2023/10/25 11:14:16;;;;;;;47.08;7.30;;;;;;;;;;10422141;28;20029;-72
2023/10/25 11:19:16;;;;;;;41.70;6.30;;;;;;;;;;10422301;28;20145;-72
2023/10/25 11:24:17;;;;;;;50.13;6.40;;;;;;;;;;10421863;28;20017;-72
2023/10/25 11:29:17;;;;;;;44.83;6.88;;;;;;;;;;10420725;28;20325;-72
2023/10/25 11:34:21;;;;;;;53.30;7.35;;;;;;;;;;10421372;28;20021;-72
2023/10/25 11:39:21;;;;;;;60.78;7.68;;;;;;;;;;10424038;28;20022;-72
2023/10/25 11:44:22;;;;;;;45.88;5.32;;;;;;;;;;10420815;28;20284;-73
2023/10/25 11:49:23;;;;;;;56.67;7.38;;;;;;;;;;10420488;28;20215;-73
2023/10/25 11:54:23;;;;;;;56.03;6.40;;;;;;;;;;10420606;28;20041;-72
2023/10/25 11:59:23;;;;;;;57.65;8.10;;;;;;;;;;10419953;28;20337;-73
2023/10/25 12:04:24;;;;;;;58.60;6.80;;;;;;;;;;10420392;28;20056;-71
2023/10/25 12:09:24;;;;;;;57.50;8.75;;;;;;;;;;10419393;28;20031;-73
2023/10/25 12:14:24;;;;;;;72.65;9.35;;;;;;;;;;10434835;28;20300;-72
2023/10/25 12:19:24;;;;;;;59.70;6.10;;;;;;;;;;10419450;28;20028;-72
2023/10/25 12:24:25;;;;;;;53.70;6.87;;;;;;;;;;10419533;28;20026;-72
2023/10/25 12:29:25;;;;;;;58.40;7.35;;;;;;;;;;10419128;28;20333;-72
2023/10/25 12:34:26;;;;;;;66.03;7.85;;;;;;;;;;10418433;28;20025;-71
2023/10/25 12:39:26;;;;;;;54.67;6.60;;;;;;;;;;10418644;28;20350;-73
2023/10/25 12:44:27;;;;;;;68.07;8.40;;;;;;;;;;10418564;28;20017;-72
2023/10/25 12:49:27;;;;;;;68.97;7.53;;;;;;;;;;10417840;28;20295;-72
2023/10/25 12:54:27;;;;;;;67.78;7.15;;;;;;;;;;10418248;28;20152;-72
2023/10/25 12:59:28;;;;;;;61.28;7.43;;;;;;;;;;10417575;28;20390;-72
2023/10/25 13:04:28;;;;;;;64.30;8.93;;;;;;;;;;10417761;28;20025;-72
2023/10/25 13:09:28;;;;;;;57.47;8.40;;;;;;;;;;10417824;28;20032;-71
2023/10/25 13:14:28;;;;;;;70.85;7.75;;;;;;;;;;10417537;28;20323;-72
2023/10/25 13:19:29;;;;;;;56.70;8.75;;;;;;;;;;10417970;28;20018;-71
2023/10/25 13:24:29;;;;;;;62.63;7.97;;;;;;;;;;10417129;28;20022;-72
2023/10/25 13:29:30;;;;;;;74.07;9.73;;;;;;;;;;10417844;28;20009;-72
2023/10/25 13:34:30;;;;;;;60.10;8.73;;;;;;;;;;10416899;28;20018;-72
2023/10/25 13:39:30;;;;;;;61.08;8.57;;;;;;;;;;10417005;28;20016;-71
2023/10/25 13:44:30;;;;;;;50.50;8.88;;;;;;;;;;10416804;28;20181;-72
2023/10/25 13:49:31;;;;;;;56.55;7.88;;;;;;;;;;10400130;28;20021;-69
2023/10/25 13:54:31;;;;;;;76.27;8.50;;;;;;;;;;10382086;28;20446;-74
2023/10/25 13:59:31;;;;;;;65.10;8.43;;;;;;;;;;10381928;28;20017;-69
2023/10/25 14:04:32;;;;;;;64.85;7.95;;;;;;;;;;10382055;28;20076;-68
2023/10/25 14:09:32;;;;;;;66.82;7.45;;;;;;;;;;10382029;28;20103;-68
2023/10/25 14:14:32;;;;;;;62.13;8.95;;;;;;;;;;10381545;28;20021;-70
2023/10/25 14:19:33;;;;;;;65.63;7.35;;;;;;;;;;10380733;28;20335;-69
2023/10/25 14:24:33;;;;;;;50.20;7.35;;;;;;;;;;10382362;28;20076;-68
2023/10/25 14:29:34;;;;;;;60.45;8.25;;;;;;;;;;10380403;28;20041;-69
2023/10/25 14:34:34;;;;;;;63.15;5.93;;;;;;;;;;10380077;28;20361;-70
2023/10/25 14:39:34;;;;;;;38.03;5.72;;;;;;;;;;10380573;28;20308;-70
2023/10/25 14:44:35;;;;;;;37.67;6.45;;;;;;;;;;10379866;28;20026;-72
2023/10/25 14:49:35;;;;;;;35.45;4.28;;;;;;;;;;10379908;28;20021;-71
2023/10/25 14:54:36;;;;;;;35.78;4.13;;;;;;;;;;10380207;28;20116;-72
2023/10/25 14:59:36;;;;;;;44.50;4.57;;;;;;;;;;10378964;28;20022;-72
2023/10/25 15:04:36;;;;;;;21.23;2.53;;;;;;;;;;10379750;28;20260;-72
2023/10/25 15:09:36;;;;;;;28.88;4.25;;;;;;;;;;10379559;28;20045;-72
2023/10/25 15:14:37;;;;;;;18.00;2.47;;;;;;;;;;10378957;28;20288;-71
2023/10/25 15:19:37;;;;;;;21.70;2.40;;;;;;;;;;10379289;28;20268;-70
2023/10/25 15:24:43;;;;;;;17.60;2.75;;;;;;;;;;10378622;28;20085;-71
2023/10/25 15:29:47;;;;;;;18.63;3.35;;;;;;;;;;10378616;28;20189;-71
2023/10/25 15:34:48;;;;;;;29.63;5.25;;;;;;;;;;10380881;28;20113;-71
2023/10/25 15:39:48;;;;;;;48.83;5.97;;;;;;;;;;10379765;28;20288;-71
2023/10/25 15:44:49;;;;;;;42.05;4.70;;;;;;;;;;10377873;28;20093;-72
2023/10/25 15:49:50;;;;;;;44.90;6.85;;;;;;;;;;10371052;28;20030;-71
2023/10/25 15:54:50;;;;;;;38.08;5.38;;;;;;;;;;10373230;28;20370;-71
2023/10/25 15:59:51;;;;;;;57.05;6.22;;;;;;;;;;10372099;28;20030;-71
2023/10/25 16:04:51;;;;;;;53.67;7.30;;;;;;;;;;10371073;28;20201;-73
2023/10/25 16:09:51;;;;;;;40.28;5.88;;;;;;;;;;10371751;28;20288;-70
2023/10/25 16:14:51;;;;;;;62.25;7.65;;;;;;;;;;10371584;28;20033;-70
2023/10/25 16:19:54;;;;;;;52.63;8.60;;;;;;;;;;10372332;28;20358;-70
2023/10/25 16:24:55;;;;;;;47.08;6.65;;;;;;;;;;10368293;28;20033;-70
2023/10/25 16:29:55;;;;;;;48.08;7.13;;;;;;;;;;10368137;28;20306;-70
2023/10/25 16:34:56;;;;;;;63.07;8.67;;;;;;;;;;10369171;28;20041;-69
2023/10/25 16:39:56;;;;;;;48.13;6.18;;;;;;;;;;10371795;28;20254;-68
2023/10/25 16:44:56;;;;;;;44.57;8.23;;;;;;;;;;10363241;28;20029;-70
2023/10/25 16:49:56;;;;;;;55.67;8.38;;;;;;;;;;10369403;28;20231;-69
2023/10/25 16:54:58;;;;;;;60.05;7.75;;;;;;;;;;10372329;28;20427;-71
2023/10/25 16:59:58;;;;;;;61.67;9.90;;;;;;;;;;10372964;28;20025;-70
2023/10/25 17:04:58;;;;;;;69.10;12.35;;;;;;;;;;10383023;28;20033;-70
2023/10/25 17:09:59;;;;;;;76.28;12.57;;;;;;;;;;10375019;28;20018;-70
2023/10/25 17:14:59;;;;;;;67.10;9.63;;;;;;;;;;10375358;28;20033;-68
2023/10/25 17:19:59;;;;;;;66.10;9.90;;;;;;;;;;10374604;28;20259;-69
2023/10/25 17:25:00;;;;;;;59.13;10.23;;;;;;;;;;10374420;28;20022;-69
2023/10/25 17:30:00;;;;;;;63.10;12.15;;;;;;;;;;10374862;28;20048;-70
2023/10/25 17:35:00;;;;;;;72.77;11.50;;;;;;;;;;10375252;28;20352;-69
2023/10/25 17:40:00;;;;;;;68.50;11.48;;;;;;;;;;10375570;28;20191;-69
2023/10/25 17:45:03;;;;;;;68.45;11.35;;;;;;;;;;10375430;28;20028;-69
2023/10/25 17:50:03;;;;;;;76.65;9.77;;;;;;;;;;10374577;28;20033;-70
2023/10/25 17:55:04;;;;;;;71.65;10.85;;;;;;;;;;10367472;28;20336;-73
2023/10/25 18:00:05;;;;;;;58.22;8.98;;;;;;;;;;10368626;28;20098;-72
2023/10/25 18:05:05;;;;;;;51.53;9.32;;;;;;;;;;10369123;28;20222;-75
2023/10/25 18:10:06;;;;;;;79.28;11.27;;;;;;;;;;10373344;28;20026;-72
2023/10/25 18:15:06;;;;;;;67.70;9.65;;;;;;;;;;10369399;28;20204;-74
2023/10/25 18:20:07;;;;;;;67.38;10.48;;;;;;;;;;10371014;28;20048;-76
2023/10/25 18:25:08;;;;;;;56.03;8.90;;;;;;;;;;10382126;28;20021;-70
2023/10/25 18:30:08;;;;;;;74.63;11.48;;;;;;;;;;10373217;28;20029;-74
2023/10/25 18:35:08;;;;;;;49.53;9.38;;;;;;;;;;10376029;28;20025;-74
2023/10/25 18:40:09;;;;;;;59.78;9.70;;;;;;;;;;10379349;28;20292;-71
2023/10/25 18:45:10;;;;;;;56.83;9.07;;;;;;;;;;10380112;28;20053;-69
2023/10/25 18:50:12;;;;;;;57.90;9.50;;;;;;;;;;10394282;28;20060;-71
2023/10/25 18:55:13;;;;;;;86.80;10.43;;;;;;;;;;10387216;28;20205;-72
2023/10/25 19:00:13;;;;;;;60.20;9.45;;;;;;;;;;10378173;28;20018;-73
2023/10/25 19:05:14;;;;;;;66.10;11.52;;;;;;;;;;10380016;28;20047;-70
2023/10/25 19:10:15;;;;;;;47.73;8.43;;;;;;;;;;10386394;28;20020;-73
2023/10/25 19:15:15;;;;;;;49.17;10.73;;;;;;;;;;10390847;28;20017;-78
2023/10/25 19:20:15;;;;;;;54.13;8.90;;;;;;;;;;10375278;28;20082;-74
2023/10/25 19:25:16;;;;;;;46.40;8.85;;;;;;;;;;10374117;28;20276;-78
2023/10/25 19:30:16;;;;;;;65.97;10.30;;;;;;;;;;10375272;28;20081;-75
2023/10/25 19:35:17;;;;;;;47.67;10.07;;;;;;;;;;10378290;28;20014;-77
2023/10/25 19:40:18;;;;;;;50.53;8.98;;;;;;;;;;10373613;28;20024;-72
2023/10/25 19:45:18;;;;;;;52.28;9.20;;;;;;;;;;10389626;28;20295;-71
2023/10/25 19:50:18;;;;;;;69.75;11.23;;;;;;;;;;10374282;28;20068;-83
2023/10/25 19:55:23;;;;;;;69.73;11.27;;;;;;;;;;10374271;28;20239;-92
2023/10/25 20:00:23;;;;;;;73.85;12.35;;;;;;;;;;10372245;28;20598;-78
2023/10/25 20:05:23;;;;;;;61.10;10.05;;;;;;;;;;10373081;28;20051;-73
2023/10/25 20:10:24;;;;;;;62.05;9.88;;;;;;;;;;10374364;28;20116;-76
2023/10/25 20:15:24;;;;;;;57.33;8.85;;;;;;;;;;10372505;28;20259;-75
2023/10/25 20:20:24;;;;;;;59.55;10.93;;;;;;;;;;10373269;28;20021;-73
2023/10/25 20:25:25;;;;;;;73.35;11.35;;;;;;;;;;10370851;28;20468;-74
2023/10/25 20:30:25;;;;;;;65.00;10.73;;;;;;;;;;10375191;28;20018;-73
2023/10/25 20:35:26;;;;;;;67.03;12.35;;;;;;;;;;10376235;28;20211;-71
2023/10/25 20:40:27;;;;;;;50.95;8.65;;;;;;;;;;10376321;28;20069;-72
2023/10/25 20:45:27;;;;;;;52.47;9.68;;;;;;;;;;10376119;28;20017;-72
2023/10/25 20:50:28;;;;;;;59.70;9.10;;;;;;;;;;10375496;28;20037;-71
2023/10/25 20:55:28;;;;;;;55.88;11.95;;;;;;;;;;10375148;28;20080;-73
2023/10/25 21:00:28;;;;;;;51.15;9.65;;;;;;;;;;10376306;28;20212;-74
2023/10/25 21:05:28;;;;;;;51.95;8.93;;;;;;;;;;10375811;28;20019;-73
2023/10/25 21:10:29;;;;;;;51.33;8.90;;;;;;;;;;10377040;28;20294;-73
2023/10/25 21:15:31;;;;;;;52.72;9.18;;;;;;;;;;10377974;28;20018;-71
2023/10/25 21:20:32;;;;;;;68.43;14.55;;;;;;;;;;10375297;28;20022;-69
2023/10/25 21:25:32;;;;;;;50.05;8.98;;;;;;;;;;10397741;28;20021;-71
2023/10/25 21:30:35;;;;;;;57.47;10.50;;;;;;;;;;10416319;28;20299;-70
2023/10/25 21:35:36;;;;;;;64.82;11.98;;;;;;;;;;10415159;28;20025;-70
2023/10/25 21:40:36;;;;;;;78.40;12.27;;;;;;;;;;10414547;28;20013;-70
2023/10/25 21:45:37;;;;;;;49.08;10.38;;;;;;;;;;10415062;28;20033;-71
2023/10/25 21:50:39;;;;;;;63.38;11.68;;;;;;;;;;10385118;28;20303;-70
2023/10/25 21:55:39;;;;;;;58.45;10.90;;;;;;;;;;10409482;28;20041;-70
2023/10/25 22:00:39;;;;;;;46.80;9.90;;;;;;;;;;10417006;28;20018;-70
2023/10/25 22:05:41;;;;;;;43.83;9.38;;;;;;;;;;10417202;28;20052;-70
2023/10/25 22:10:41;;;;;;;49.20;9.38;;;;;;;;;;10420953;28;20084;-70
2023/10/25 22:15:41;;;;;;;57.80;10.60;;;;;;;;;;10424501;28;20053;-70
2023/10/25 22:20:42;;;;;;;50.80;8.47;;;;;;;;;;10424884;28;20017;-70
2023/10/25 22:25:42;;;;;;;51.22;9.73;;;;;;;;;;10424665;28;20378;-70
2023/10/25 22:30:42;;;;;;;54.53;9.10;;;;;;;;;;10424736;28;20029;-69
2023/10/25 22:35:43;;;;;;;41.13;7.95;;;;;;;;;;10423832;28;20043;-70
2023/10/25 22:40:44;;;;;;;60.95;8.23;;;;;;;;;;10424292;28;20044;-70
2023/10/25 22:45:44;;;;;;;54.10;8.95;;;;;;;;;;10424559;28;20017;-70
2023/10/25 22:50:54;;;;;;;33.33;7.27;;;;;;;;;;10423408;28;20258;-70
2023/10/25 22:55:55;;;;;;;28.02;5.47;;;;;;;;;;10423652;28;20079;-69
2023/10/25 23:00:55;;;;;;;36.83;7.35;;;;;;;;;;10439137;28;20071;-70
2023/10/25 23:05:57;;;;;;;35.08;8.38;;;;;;;;;;10423816;28;20088;-70
2023/10/25 23:10:57;;;;;;;48.15;7.47;;;;;;;;;;10422938;28;20021;-70
2023/10/25 23:16:01;;;;;;;46.08;7.82;;;;;;;;;;10423009;28;20309;-69
2023/10/25 23:21:01;;;;;;;41.63;9.15;;;;;;;;;;10422203;28;20414;-70
2023/10/25 23:26:05;;;;;;;65.22;10.48;;;;;;;;;;10422362;28;20374;-71
2023/10/25 23:31:08;;;;;;;47.97;9.32;;;;;;;;;;10413310;28;20108;-70
2023/10/25 23:36:10;;;;;;;51.80;8.95;;;;;;;;;;10397509;28;20199;-68
2023/10/25 23:41:10;;;;;;;35.92;6.70;;;;;;;;;;10427476;28;20023;-69
2023/10/25 23:46:10;;;;;;;51.70;9.87;;;;;;;;;;10421669;28;20017;-69
2023/10/25 23:51:10;;;;;;;40.92;8.32;;;;;;;;;;10421734;28;20017;-70
2023/10/25 23:56:11;;;;;;;42.72;8.85;;;;;;;;;;10421410;28;20289;-68
